Surrey, British Columbia

7:53 PM PDT on May 24, 2015 (GMT -0700)
Surrey, BRITISH COLUMBIA | | Change Station
CLOSE
Current Station
Personal Weather Station
Location: Surrey, BC
Elevation: 272 ft
Nearby Weather Stations

Elev 272 ft 49.20 °N, 122.81 °W | Updated 3 minutes ago

Partly Cloudy
Partly Cloudy
61.3 °F
Feels Like 61.3 °F
N
3.0
Wind Variable Wind from SW
Gusts 8.0 mph

Today
High -- | Low -- °F
--% Chance of Precip.
Yesterday
High -- | Low -- °F
Precip. -- in
5:17 AM 8:59 PM
Waxing Crescent, 44% visible
Pressure 30.00 in
Visibility 20.0 miles
Clouds Few 3000 ft
Few 7000 ft
Few 22000 ft
Dew Point 52 °F
Humidity 72%
Rainfall 0.00 in
Snow Depth Not available.
UV 0.0 out of 12
Pollen Not available.
Air Quality Not available.
Flu Activity Not available.
METAR CYXX 250200Z 22008KT 20SM FEW030 FEW070 FEW220 17/11 A3000 RMK CU1AC1CI1 CU TR SLP159 DENSITY ALT 400FT

More Conditions Fewer Conditions

Pressure 30.00 in
Visibility 20.0 miles
Clouds Few 3000 ft
Few 7000 ft
Few 22000 ft
Dew Point 52 °F
Humidity 72%
Rainfall 0.00 in
Snow Depth Not available.
UV 0.0 out of 12
Pollen Not available.
Air Quality Not available.
Flu Activity Not available.
METAR CYXX 250200Z 22008KT 20SM FEW030 FEW070 FEW220 17/11 A3000 RMK CU1AC1CI1 CU TR SLP159 DENSITY ALT 400FT

More Conditions Fewer Conditions

10-Day Weather Forecast

Almanac

Astronomy

May. 24, 2015 Rise Set
Actual Time
Civil Twilight
Nautical Twilight
Astronomical Twilight
Moon
Length of Visible Light
Length of Day
Tomorrow will be .
, % of the Moon is Illuminated

Today's Extremes

Country Highs Country Lows

Community

WunderPhotos

Upload Photos

1,823,936 photos uploaded!

WunderBlogs® & News

Nearby

Air Quality

  Air Quality AQ Index Pollutant
Not available.

Snow Depth

Station Depth Elevation

Earthquake Activity

City Distance Mag. Time & Date
Minimum magnitude displayed is 2.5.

Coastal Water Temperatures

Place Temperature

Stations

Nearby Weather Stations

Station Location Temp. Windchill Dew Point Humidity Wind Precip. Elev Updated Type